Terminal Aerodrome Forecast
Issued by NWS

Home | Current Version | Previous Version | Text Only | Print | Product List | Glossary On
Versions: 1 2 3 4 5 6 7 8 9 10 11 12 13 14 15 16
444
FTUS43 KAPX 291314 AAA
TAFMBL
TAF AMD
KMBL 291314Z 2913/3012 VRB03KT P6SM VCSH OVC060
     FM291500 06005KT P6SM OVC070
     FM292000 36007KT P6SM OVC080
     FM300100 VRB03KT P6SM BKN050
     FM300300 VRB03KT P6SM SCT050
      AMD LTD TO CLD VIS AND WIND=

USA.gov is the U.S. government's official web portal to all federal, state and local government web resources and services.